createdAt,value
2023-01-28T00:04:00.641Z,2.6
2023-01-28T00:14:01.248Z,2.4
2023-01-28T00:24:01.952Z,2.9
2023-01-28T00:34:02.441Z,2.7
2023-01-28T00:44:02.998Z,2.8
2023-01-28T00:54:03.502Z,2.9
2023-01-28T01:04:03.978Z,3.5
2023-01-28T01:14:04.493Z,4.2
2023-01-28T01:24:05.029Z,4.4
2023-01-28T01:34:05.516Z,6.9
2023-01-28T01:44:05.937Z,10.4
2023-01-28T01:54:06.403Z,11.2
2023-01-28T02:04:06.863Z,12.9
2023-01-28T02:14:07.412Z,12.5
2023-01-28T02:24:07.927Z,12.9
2023-01-28T02:34:08.450Z,9.4
2023-01-28T02:44:08.971Z,9.8
2023-01-28T02:54:09.467Z,9.9
2023-01-28T03:04:09.987Z,9.7
2023-01-28T03:14:10.481Z,9.7
2023-01-28T03:24:10.969Z,8.9
2023-01-28T03:34:11.435Z,10.8
2023-01-28T03:44:11.924Z,9.3
2023-01-28T03:54:12.373Z,9.9
2023-01-28T04:04:12.796Z,11
2023-01-28T04:14:13.197Z,12.3
2023-01-28T04:24:13.613Z,11.5
2023-01-28T04:34:13.954Z,12.9
2023-01-28T04:44:14.272Z,12.7
2023-01-28T04:54:14.664Z,10.3
2023-01-28T05:04:15.058Z,9.4
2023-01-28T05:14:15.444Z,10.1
2023-01-28T05:24:15.868Z,10.5
2023-01-28T05:34:16.209Z,10.3
2023-01-28T05:44:16.626Z,10.2
2023-01-28T05:54:16.981Z,11.5
2023-01-28T06:04:17.315Z,9.5
2023-01-28T06:14:17.726Z,6.8
2023-01-28T06:24:18.100Z,7.3
2023-01-28T06:34:18.351Z,5.8
2023-01-28T06:44:18.698Z,5.8
2023-01-28T06:54:19.079Z,5.9
2023-01-28T07:04:19.391Z,6.3
2023-01-28T07:14:19.728Z,6.4
2023-01-28T07:24:20.205Z,6.2
2023-01-28T07:34:20.367Z,5.6
2023-01-28T07:44:20.647Z,4.9
2023-01-28T07:54:21.035Z,5.1
2023-01-28T08:04:21.512Z,4.9
2023-01-28T08:14:21.672Z,4.6
2023-01-28T08:24:22.109Z,4.3
2023-01-28T08:34:23.789Z,3.6
2023-01-28T08:44:22.659Z,4.2
2023-01-28T08:54:22.903Z,4.7
2023-01-28T09:04:23.214Z,4.6
2023-01-28T09:14:23.475Z,5
2023-01-28T09:24:23.722Z,6.4
2023-01-28T09:34:23.947Z,4.8
2023-01-28T09:44:24.190Z,3.9
2023-01-28T09:54:24.466Z,4
2023-01-28T10:04:24.740Z,4.1
2023-01-28T10:14:25.056Z,4
2023-01-28T10:24:26.225Z,3.4
2023-01-28T10:34:25.594Z,3
2023-01-28T10:44:25.845Z,2.6
2023-01-28T10:54:26.212Z,2.7
2023-01-28T11:04:26.570Z,2.4
2023-01-28T11:14:26.948Z,2.9
2023-01-28T11:24:27.379Z,2.8
2023-01-28T11:34:27.735Z,2.3
2023-01-28T11:44:28.219Z,2.9
2023-01-28T11:54:28.583Z,2.9
2023-01-28T12:04:28.908Z,3
2023-01-28T12:14:29.296Z,2.6
2023-01-28T12:24:29.680Z,2.4
2023-01-28T12:30:45.229Z,2.4
2023-01-28T12:31:41.367Z,2.4
2023-01-28T12:34:30.149Z,2.7
2023-01-28T12:44:30.511Z,2.5
2023-01-28T12:54:30.885Z,2.8
2023-01-28T13:04:32.589Z,2.7
2023-01-28T13:14:31.652Z,2.8
2023-01-28T13:24:32.329Z,2.7
2023-01-28T13:34:33.939Z,2.8
2023-01-28T13:44:33.163Z,2.9
2023-01-28T13:54:34.854Z,3
2023-01-28T14:04:34.131Z,2.9
2023-01-28T14:14:34.600Z,2.7
2023-01-28T14:24:36.495Z,2.6
2023-01-28T14:34:36.580Z,2.6
2023-01-28T14:44:36.009Z,2.3
2023-01-28T14:54:36.551Z,2.3
2023-01-28T14:58:10.753Z,2.3
2023-01-28T15:04:39.933Z,2.3
2023-01-28T15:14:37.801Z,2.4
2023-01-28T15:24:38.453Z,1.9
2023-01-28T15:34:39.364Z,1.9
2023-01-28T15:44:40.021Z,1.9
2023-01-28T15:54:41.069Z,1.6
2023-01-28T16:00:10.792Z,1.6
2023-01-28T16:04:53.460Z,1.6
2023-01-28T16:14:46.901Z,1.8
2023-01-28T16:24:43.803Z,1.6
2023-01-28T16:34:44.772Z,1.5
2023-01-28T16:44:48.207Z,1.4
2023-01-28T16:54:46.651Z,1.2
2023-01-28T17:04:47.869Z,0.9
2023-01-28T17:14:48.788Z,1.2
2023-01-28T17:24:50.165Z,1
2023-01-28T17:34:51.121Z,1
2023-01-28T17:44:56.895Z,0.9
2023-01-28T17:54:53.573Z,1
2023-01-28T18:04:59.003Z,1
2023-01-28T18:15:00.455Z,0.8
2023-01-28T18:24:57.463Z,1.1
2023-01-28T18:34:59.762Z,0.8
2023-01-28T18:45:00.279Z,0.8
2023-01-28T18:55:03.574Z,0.7
2023-01-28T19:05:02.949Z,0.9
2023-01-28T19:15:04.388Z,0.8
2023-01-28T19:25:05.711Z,0.7
2023-01-28T19:35:07.089Z,0.8
2023-01-28T19:45:08.635Z,0.8
2023-01-28T19:55:09.878Z,0.8
2023-01-28T19:56:13.649Z,0.8
2023-01-28T20:05:17.837Z,0.8
2023-01-28T20:11:23.368Z,0.8
2023-01-28T20:15:14.031Z,1
2023-01-28T20:25:14.886Z,0.8
2023-01-28T20:35:16.050Z,0.9
2023-01-28T21:23:58.791Z,0.9
2023-01-28T21:25:26.964Z,1
2023-01-28T21:28:44.714Z,1
2023-01-28T21:31:40.042Z,1
2023-01-28T21:32:53.182Z,1
2023-01-28T21:35:24.440Z,0.9
2023-01-28T21:55:32.291Z,1.3
2023-01-28T21:58:37.291Z,1.3
2023-01-28T21:59:52.072Z,1.3
2023-01-28T22:05:27.904Z,0.9
2023-01-28T22:15:29.111Z,1.5
2023-01-28T22:25:30.569Z,3.4
2023-01-28T22:31:12.954Z,3.4
2023-01-28T22:35:31.735Z,1.8
2023-01-28T22:38:46.040Z,1.8
2023-01-28T22:55:38.558Z,1.7
2023-01-28T22:57:52.467Z,1.7
2023-01-28T23:05:36.613Z,1.9
2023-01-28T23:12:00.980Z,1.9
2023-01-28T23:15:41.529Z,3.1
2023-01-28T23:25:37.682Z,2.8
2023-01-28T23:35:46.324Z,2.6
2023-01-28T23:45:42.309Z,2.9
2023-01-28T23:55:40.434Z,3.1
